sensor_id;sensor_type;location;lat;lon;timestamp;temperature;humidity
463;DHT22;218;51.902;9.542;2023-06-14T00:02:56;19.00;1.00
463;DHT22;218;51.902;9.542;2023-06-14T00:25:07;17.90;1.00
463;DHT22;218;51.902;9.542;2023-06-14T00:39:51;17.40;1.00
463;DHT22;218;51.902;9.542;2023-06-14T00:59:41;17.10;1.00
463;DHT22;218;51.902;9.542;2023-06-14T01:02:09;16.90;1.00
463;DHT22;218;51.902;9.542;2023-06-14T01:07:09;16.90;1.00
463;DHT22;218;51.902;9.542;2023-06-14T01:14:42;16.60;1.00
463;DHT22;218;51.902;9.542;2023-06-14T01:59:16;15.30;1.00
463;DHT22;218;51.902;9.542;2023-06-14T02:06:38;14.90;1.00
463;DHT22;218;51.902;9.542;2023-06-14T02:26:17;15.00;1.00
463;DHT22;218;51.902;9.542;2023-06-14T02:58:14;13.10;1.00
463;DHT22;218;51.902;9.542;2023-06-14T03:20:35;14.70;1.00
463;DHT22;218;51.902;9.542;2023-06-14T03:55:10;13.20;1.00
463;DHT22;218;51.902;9.542;2023-06-14T04:29:51;14.30;1.00
463;DHT22;218;51.902;9.542;2023-06-14T05:29:13;17.60;1.00
463;DHT22;218;51.902;9.542;2023-06-14T05:34:07;16.90;1.00
463;DHT22;218;51.902;9.542;2023-06-14T05:36:34;17.20;1.00
463;DHT22;218;51.902;9.542;2023-06-14T05:39:02;16.70;1.00
463;DHT22;218;51.902;9.542;2023-06-14T06:08:38;19.10;1.00
463;DHT22;218;51.902;9.542;2023-06-14T06:13:33;19.20;1.00
463;DHT22;218;51.902;9.542;2023-06-14T06:20:56;19.50;1.00
463;DHT22;218;51.902;9.542;2023-06-14T06:30:44;19.80;1.00
463;DHT22;218;51.902;9.542;2023-06-14T06:33:11;19.90;1.00
463;DHT22;218;51.902;9.542;2023-06-14T06:40:35;20.40;1.00
463;DHT22;218;51.902;9.542;2023-06-14T06:43:03;20.50;1.00
463;DHT22;218;51.902;9.542;2023-06-14T06:45:29;20.30;1.00
463;DHT22;218;51.902;9.542;2023-06-14T06:50:23;20.60;1.00
463;DHT22;218;51.902;9.542;2023-06-14T06:52:52;20.90;1.00
463;DHT22;218;51.902;9.542;2023-06-14T06:55:23;20.90;1.00
463;DHT22;218;51.902;9.542;2023-06-14T07:00:18;21.00;1.00
463;DHT22;218;51.902;9.542;2023-06-14T07:02:45;21.20;1.00
463;DHT22;218;51.902;9.542;2023-06-14T07:05:12;21.30;1.00
463;DHT22;218;51.902;9.542;2023-06-14T07:07:39;21.30;1.00
463;DHT22;218;51.902;9.542;2023-06-14T07:12:36;21.60;1.00
463;DHT22;218;51.902;9.542;2023-06-14T07:15:06;21.80;1.00
463;DHT22;218;51.902;9.542;2023-06-14T07:17:33;21.90;1.00
463;DHT22;218;51.902;9.542;2023-06-14T07:20:02;22.00;1.00
463;DHT22;218;51.902;9.542;2023-06-14T07:22:38;22.00;1.00
463;DHT22;218;51.902;9.542;2023-06-14T07:25:08;22.20;1.00
463;DHT22;218;51.902;9.542;2023-06-14T07:27:35;22.20;1.00
463;DHT22;218;51.902;9.542;2023-06-14T07:30:02;22.40;1.00
463;DHT22;218;51.902;9.542;2023-06-14T07:32:29;22.40;1.00
463;DHT22;218;51.902;9.542;2023-06-14T07:34:56;22.50;1.00
463;DHT22;218;51.902;9.542;2023-06-14T07:37:23;22.60;1.00
463;DHT22;218;51.902;9.542;2023-06-14T07:39:50;22.70;1.00
463;DHT22;218;51.902;9.542;2023-06-14T07:42:18;22.80;1.00
463;DHT22;218;51.902;9.542;2023-06-14T07:44:45;22.80;1.00
463;DHT22;218;51.902;9.542;2023-06-14T07:47:12;22.90;1.00
463;DHT22;218;51.902;9.542;2023-06-14T07:49:39;23.00;1.00
463;DHT22;218;51.902;9.542;2023-06-14T07:52:06;23.10;1.00
463;DHT22;218;51.902;9.542;2023-06-14T07:54:33;23.20;1.00
463;DHT22;218;51.902;9.542;2023-06-14T07:57:00;23.20;1.00
463;DHT22;218;51.902;9.542;2023-06-14T07:59:28;23.30;1.00
463;DHT22;218;51.902;9.542;2023-06-14T08:01:55;23.30;1.00
463;DHT22;218;51.902;9.542;2023-06-14T08:04:22;23.50;1.00
463;DHT22;218;51.902;9.542;2023-06-14T08:06:50;23.60;1.00
463;DHT22;218;51.902;9.542;2023-06-14T08:09:17;23.60;1.00
463;DHT22;218;51.902;9.542;2023-06-14T08:11:44;23.70;1.00
463;DHT22;218;51.902;9.542;2023-06-14T08:14:11;23.80;1.00
463;DHT22;218;51.902;9.542;2023-06-14T08:16:39;23.80;1.00
463;DHT22;218;51.902;9.542;2023-06-14T08:19:06;23.90;1.00
463;DHT22;218;51.902;9.542;2023-06-14T08:21:33;23.90;1.00
463;DHT22;218;51.902;9.542;2023-06-14T08:24:02;24.00;1.00
463;DHT22;218;51.902;9.542;2023-06-14T08:26:29;24.10;1.00
463;DHT22;218;51.902;9.542;2023-06-14T08:28:57;24.10;1.00
463;DHT22;218;51.902;9.542;2023-06-14T08:31:24;24.20;1.00
463;DHT22;218;51.902;9.542;2023-06-14T08:33:52;24.20;1.00
463;DHT22;218;51.902;9.542;2023-06-14T08:36:19;24.30;1.00
463;DHT22;218;51.902;9.542;2023-06-14T08:38:48;24.40;1.00
463;DHT22;218;51.902;9.542;2023-06-14T08:41:20;24.50;1.00
463;DHT22;218;51.902;9.542;2023-06-14T08:43:47;24.60;1.00
463;DHT22;218;51.902;9.542;2023-06-14T08:46:17;24.70;1.00
463;DHT22;218;51.902;9.542;2023-06-14T08:48:47;24.80;1.00
463;DHT22;218;51.902;9.542;2023-06-14T08:51:18;24.90;1.00
463;DHT22;218;51.902;9.542;2023-06-14T08:53:52;24.90;1.00
463;DHT22;218;51.902;9.542;2023-06-14T08:56:23;25.10;1.00
463;DHT22;218;51.902;9.542;2023-06-14T08:58:52;25.10;1.00
463;DHT22;218;51.902;9.542;2023-06-14T09:01:19;25.20;1.00
463;DHT22;218;51.902;9.542;2023-06-14T09:03:48;25.20;1.00
463;DHT22;218;51.902;9.542;2023-06-14T09:06:17;25.30;1.00
463;DHT22;218;51.902;9.542;2023-06-14T09:08:45;25.30;1.00
463;DHT22;218;51.902;9.542;2023-06-14T09:11:13;25.40;1.00
463;DHT22;218;51.902;9.542;2023-06-14T09:13:41;25.50;1.00
463;DHT22;218;51.902;9.542;2023-06-14T09:16:08;25.50;1.00
463;DHT22;218;51.902;9.542;2023-06-14T09:18:36;25.50;1.00
463;DHT22;218;51.902;9.542;2023-06-14T09:21:06;25.60;1.00
463;DHT22;218;51.902;9.542;2023-06-14T09:23:36;25.60;1.00
463;DHT22;218;51.902;9.542;2023-06-14T09:26:07;25.60;1.00
463;DHT22;218;51.902;9.542;2023-06-14T09:28:34;25.70;1.00
463;DHT22;218;51.902;9.542;2023-06-14T09:31:01;25.70;1.00
463;DHT22;218;51.902;9.542;2023-06-14T09:33:28;25.70;1.00
463;DHT22;218;51.902;9.542;2023-06-14T09:35:55;25.80;1.00
463;DHT22;218;51.902;9.542;2023-06-14T09:38:22;25.90;1.00
463;DHT22;218;51.902;9.542;2023-06-14T09:40:51;25.90;1.00
463;DHT22;218;51.902;9.542;2023-06-14T09:43:18;26.00;1.00
463;DHT22;218;51.902;9.542;2023-06-14T09:45:48;26.00;1.00
463;DHT22;218;51.902;9.542;2023-06-14T09:48:15;26.00;1.00
463;DHT22;218;51.902;9.542;2023-06-14T09:50:45;26.00;1.00
463;DHT22;218;51.902;9.542;2023-06-14T09:53:13;26.10;1.00
463;DHT22;218;51.902;9.542;2023-06-14T09:55:41;26.10;1.00
463;DHT22;218;51.902;9.542;2023-06-14T09:58:10;26.20;1.00
463;DHT22;218;51.902;9.542;2023-06-14T10:00:39;26.20;1.00
463;DHT22;218;51.902;9.542;2023-06-14T10:03:12;26.30;1.00
463;DHT22;218;51.902;9.542;2023-06-14T10:05:41;26.40;1.00
463;DHT22;218;51.902;9.542;2023-06-14T10:08:10;26.50;1.00
463;DHT22;218;51.902;9.542;2023-06-14T10:10:39;26.50;1.00
463;DHT22;218;51.902;9.542;2023-06-14T10:13:07;26.60;1.00
463;DHT22;218;51.902;9.542;2023-06-14T10:15:46;26.60;1.00
463;DHT22;218;51.902;9.542;2023-06-14T10:18:19;26.70;1.00
463;DHT22;218;51.902;9.542;2023-06-14T10:20:55;26.80;1.00
463;DHT22;218;51.902;9.542;2023-06-14T10:23:26;26.90;1.00
463;DHT22;218;51.902;9.542;2023-06-14T10:25:56;27.00;1.00
463;DHT22;218;51.902;9.542;2023-06-14T10:28:25;27.10;1.00
463;DHT22;218;51.902;9.542;2023-06-14T10:31:04;27.20;1.00
463;DHT22;218;51.902;9.542;2023-06-14T10:33:31;27.30;1.00
463;DHT22;218;51.902;9.542;2023-06-14T10:36:24;27.40;1.00
463;DHT22;218;51.902;9.542;2023-06-14T10:39:00;27.50;1.00
463;DHT22;218;51.902;9.542;2023-06-14T10:41:29;27.60;1.00
463;DHT22;218;51.902;9.542;2023-06-14T10:44:38;27.70;1.00
463;DHT22;218;51.902;9.542;2023-06-14T10:47:10;27.80;1.00
463;DHT22;218;51.902;9.542;2023-06-14T10:49:39;27.80;1.00
463;DHT22;218;51.902;9.542;2023-06-14T10:52:08;27.90;1.00
463;DHT22;218;51.902;9.542;2023-06-14T10:55:03;28.00;1.00
463;DHT22;218;51.902;9.542;2023-06-14T10:57:32;28.00;1.00
463;DHT22;218;51.902;9.542;2023-06-14T10:59:59;28.10;1.00
463;DHT22;218;51.902;9.542;2023-06-14T11:02:51;28.20;1.00
463;DHT22;218;51.902;9.542;2023-06-14T11:05:24;28.20;1.00
463;DHT22;218;51.902;9.542;2023-06-14T11:08:04;28.30;1.00
463;DHT22;218;51.902;9.542;2023-06-14T11:10:38;28.40;1.00
463;DHT22;218;51.902;9.542;2023-06-14T11:13:06;28.40;1.00
463;DHT22;218;51.902;9.542;2023-06-14T11:15:35;28.50;1.00
463;DHT22;218;51.902;9.542;2023-06-14T11:18:05;28.50;1.00
463;DHT22;218;51.902;9.542;2023-06-14T11:20:33;28.60;1.00
463;DHT22;218;51.902;9.542;2023-06-14T11:23:01;28.70;1.00
463;DHT22;218;51.902;9.542;2023-06-14T11:25:28;28.70;1.00
463;DHT22;218;51.902;9.542;2023-06-14T11:27:55;28.80;1.00
463;DHT22;218;51.902;9.542;2023-06-14T11:30:22;28.80;1.00
463;DHT22;218;51.902;9.542;2023-06-14T11:32:51;28.90;1.00
463;DHT22;218;51.902;9.542;2023-06-14T11:35:22;29.00;1.00
463;DHT22;218;51.902;9.542;2023-06-14T11:37:52;29.00;1.00
463;DHT22;218;51.902;9.542;2023-06-14T11:40:19;29.10;1.00
463;DHT22;218;51.902;9.542;2023-06-14T11:42:46;29.10;1.00
463;DHT22;218;51.902;9.542;2023-06-14T11:45:13;29.20;1.00
463;DHT22;218;51.902;9.542;2023-06-14T11:47:40;29.20;1.00
463;DHT22;218;51.902;9.542;2023-06-14T11:50:09;29.30;1.00
463;DHT22;218;51.902;9.542;2023-06-14T11:52:37;29.30;1.00
463;DHT22;218;51.902;9.542;2023-06-14T11:55:05;29.40;1.00
463;DHT22;218;51.902;9.542;2023-06-14T11:57:35;29.40;1.00
463;DHT22;218;51.902;9.542;2023-06-14T12:00:03;29.50;1.00
463;DHT22;218;51.902;9.542;2023-06-14T12:02:33;29.60;1.00
463;DHT22;218;51.902;9.542;2023-06-14T12:05:04;29.60;1.00
463;DHT22;218;51.902;9.542;2023-06-14T12:07:33;29.70;1.00
463;DHT22;218;51.902;9.542;2023-06-14T12:10:09;29.80;1.00
463;DHT22;218;51.902;9.542;2023-06-14T12:12:37;29.80;1.00
463;DHT22;218;51.902;9.542;2023-06-14T12:15:05;29.90;1.00
463;DHT22;218;51.902;9.542;2023-06-14T12:17:33;30.00;1.00
463;DHT22;218;51.902;9.542;2023-06-14T12:20:05;30.10;1.00
463;DHT22;218;51.902;9.542;2023-06-14T12:22:36;30.20;1.00
463;DHT22;218;51.902;9.542;2023-06-14T12:25:03;30.20;1.00
463;DHT22;218;51.902;9.542;2023-06-14T12:27:32;30.20;1.00
463;DHT22;218;51.902;9.542;2023-06-14T12:30:00;30.30;1.00
463;DHT22;218;51.902;9.542;2023-06-14T12:32:27;30.40;1.00
463;DHT22;218;51.902;9.542;2023-06-14T12:34:54;30.40;1.00
463;DHT22;218;51.902;9.542;2023-06-14T12:37:21;30.50;1.00
463;DHT22;218;51.902;9.542;2023-06-14T12:39:49;30.60;1.00
463;DHT22;218;51.902;9.542;2023-06-14T12:42:16;30.60;1.00
463;DHT22;218;51.902;9.542;2023-06-14T12:44:45;30.70;1.00
463;DHT22;218;51.902;9.542;2023-06-14T12:47:12;30.80;1.00
463;DHT22;218;51.902;9.542;2023-06-14T12:49:39;30.80;1.00
463;DHT22;218;51.902;9.542;2023-06-14T12:52:09;30.80;1.00
463;DHT22;218;51.902;9.542;2023-06-14T12:54:36;30.80;1.00
463;DHT22;218;51.902;9.542;2023-06-14T12:57:05;30.80;1.00
463;DHT22;218;51.902;9.542;2023-06-14T12:59:32;30.80;1.00
463;DHT22;218;51.902;9.542;2023-06-14T13:02:13;30.80;1.00
463;DHT22;218;51.902;9.542;2023-06-14T13:04:40;30.80;1.00
463;DHT22;218;51.902;9.542;2023-06-14T13:07:07;30.80;1.00
463;DHT22;218;51.902;9.542;2023-06-14T13:09:34;30.80;1.00
463;DHT22;218;51.902;9.542;2023-06-14T13:12:01;30.90;1.00
463;DHT22;218;51.902;9.542;2023-06-14T13:14:28;31.00;1.00
463;DHT22;218;51.902;9.542;2023-06-14T13:16:55;31.00;1.00
463;DHT22;218;51.902;9.542;2023-06-14T13:19:23;30.90;1.00
463;DHT22;218;51.902;9.542;2023-06-14T13:21:50;31.00;1.00
463;DHT22;218;51.902;9.542;2023-06-14T13:24:17;31.00;1.00
463;DHT22;218;51.902;9.542;2023-06-14T13:26:44;31.00;1.00
463;DHT22;218;51.902;9.542;2023-06-14T13:29:11;31.10;1.00
463;DHT22;218;51.902;9.542;2023-06-14T13:31:38;31.20;1.00
463;DHT22;218;51.902;9.542;2023-06-14T13:34:06;31.20;1.00
463;DHT22;218;51.902;9.542;2023-06-14T13:36:34;31.20;1.00
463;DHT22;218;51.902;9.542;2023-06-14T13:39:01;31.10;1.00
463;DHT22;218;51.902;9.542;2023-06-14T13:41:28;31.10;1.00
463;DHT22;218;51.902;9.542;2023-06-14T13:43:57;31.10;1.00
463;DHT22;218;51.902;9.542;2023-06-14T13:46:25;31.10;1.00
463;DHT22;218;51.902;9.542;2023-06-14T13:48:52;31.10;1.00
463;DHT22;218;51.902;9.542;2023-06-14T13:51:19;31.20;1.00
463;DHT22;218;51.902;9.542;2023-06-14T13:53:48;31.30;1.00
463;DHT22;218;51.902;9.542;2023-06-14T13:56:16;31.30;1.00
463;DHT22;218;51.902;9.542;2023-06-14T13:58:43;31.40;1.00
463;DHT22;218;51.902;9.542;2023-06-14T14:01:10;31.40;1.00
463;DHT22;218;51.902;9.542;2023-06-14T14:03:38;31.40;1.00
463;DHT22;218;51.902;9.542;2023-06-14T14:06:05;31.40;1.00
463;DHT22;218;51.902;9.542;2023-06-14T14:08:32;31.40;1.00
463;DHT22;218;51.902;9.542;2023-06-14T14:11:01;31.50;1.00
463;DHT22;218;51.902;9.542;2023-06-14T14:13:28;31.50;1.00
463;DHT22;218;51.902;9.542;2023-06-14T14:15:55;31.50;1.00
463;DHT22;218;51.902;9.542;2023-06-14T14:18:22;31.60;1.00
463;DHT22;218;51.902;9.542;2023-06-14T14:20:49;31.60;1.00
463;DHT22;218;51.902;9.542;2023-06-14T14:23:16;31.50;1.00
463;DHT22;218;51.902;9.542;2023-06-14T14:25:43;31.50;1.00
463;DHT22;218;51.902;9.542;2023-06-14T14:28:11;31.40;1.00
463;DHT22;218;51.902;9.542;2023-06-14T14:30:39;31.30;1.00
463;DHT22;218;51.902;9.542;2023-06-14T14:33:06;31.30;1.00
463;DHT22;218;51.902;9.542;2023-06-14T14:35:33;31.20;1.00
463;DHT22;218;51.902;9.542;2023-06-14T14:38:00;31.20;1.00
463;DHT22;218;51.902;9.542;2023-06-14T14:40:28;31.20;1.00
463;DHT22;218;51.902;9.542;2023-06-14T14:42:55;31.20;1.00
463;DHT22;218;51.902;9.542;2023-06-14T14:45:23;31.20;1.00
463;DHT22;218;51.902;9.542;2023-06-14T14:47:50;31.30;1.00
463;DHT22;218;51.902;9.542;2023-06-14T14:50:17;31.30;1.00
463;DHT22;218;51.902;9.542;2023-06-14T14:52:44;31.30;1.00
463;DHT22;218;51.902;9.542;2023-06-14T14:55:11;31.40;1.00
463;DHT22;218;51.902;9.542;2023-06-14T14:57:38;31.40;1.00
463;DHT22;218;51.902;9.542;2023-06-14T15:00:06;31.40;1.00
463;DHT22;218;51.902;9.542;2023-06-14T15:02:35;31.40;1.00
463;DHT22;218;51.902;9.542;2023-06-14T15:05:02;31.40;1.00
463;DHT22;218;51.902;9.542;2023-06-14T15:07:32;31.40;1.00
463;DHT22;218;51.902;9.542;2023-06-14T15:09:59;31.40;1.00
463;DHT22;218;51.902;9.542;2023-06-14T15:12:26;31.40;1.00
463;DHT22;218;51.902;9.542;2023-06-14T15:14:53;31.30;1.00
463;DHT22;218;51.902;9.542;2023-06-14T15:17:22;31.30;1.00
463;DHT22;218;51.902;9.542;2023-06-14T15:19:52;31.20;1.00
463;DHT22;218;51.902;9.542;2023-06-14T15:22:19;31.30;1.00
463;DHT22;218;51.902;9.542;2023-06-14T15:24:46;31.10;1.00
463;DHT22;218;51.902;9.542;2023-06-14T15:27:12;31.10;1.00
463;DHT22;218;51.902;9.542;2023-06-14T15:29:42;31.10;1.00
463;DHT22;218;51.902;9.542;2023-06-14T15:32:09;31.10;1.00
463;DHT22;218;51.902;9.542;2023-06-14T15:34:37;31.10;1.00
463;DHT22;218;51.902;9.542;2023-06-14T15:37:06;31.10;1.00
463;DHT22;218;51.902;9.542;2023-06-14T15:39:34;31.00;1.00
463;DHT22;218;51.902;9.542;2023-06-14T15:42:02;31.00;1.00
463;DHT22;218;51.902;9.542;2023-06-14T15:44:29;30.90;1.00
463;DHT22;218;51.902;9.542;2023-06-14T15:46:56;30.80;1.00
463;DHT22;218;51.902;9.542;2023-06-14T15:49:23;30.70;1.00
463;DHT22;218;51.902;9.542;2023-06-14T15:51:50;30.60;1.00
463;DHT22;218;51.902;9.542;2023-06-14T15:54:18;30.50;1.00
463;DHT22;218;51.902;9.542;2023-06-14T15:56:45;30.40;1.00
463;DHT22;218;51.902;9.542;2023-06-14T15:59:12;30.20;1.00
463;DHT22;218;51.902;9.542;2023-06-14T16:01:39;30.20;1.00
463;DHT22;218;51.902;9.542;2023-06-14T16:04:06;30.10;1.00
463;DHT22;218;51.902;9.542;2023-06-14T16:06:33;30.00;1.00
463;DHT22;218;51.902;9.542;2023-06-14T16:09:01;29.90;1.00
463;DHT22;218;51.902;9.542;2023-06-14T16:11:29;29.90;1.00
463;DHT22;218;51.902;9.542;2023-06-14T16:13:56;29.80;1.00
463;DHT22;218;51.902;9.542;2023-06-14T16:16:23;29.80;1.00
463;DHT22;218;51.902;9.542;2023-06-14T16:18:50;29.80;1.00
463;DHT22;218;51.902;9.542;2023-06-14T16:21:17;29.80;1.00
463;DHT22;218;51.902;9.542;2023-06-14T16:23:44;29.70;1.00
463;DHT22;218;51.902;9.542;2023-06-14T16:26:11;29.70;1.00
463;DHT22;218;51.902;9.542;2023-06-14T16:28:40;29.70;1.00
463;DHT22;218;51.902;9.542;2023-06-14T16:31:08;29.70;1.00
463;DHT22;218;51.902;9.542;2023-06-14T16:33:35;29.60;1.00
463;DHT22;218;51.902;9.542;2023-06-14T16:36:02;29.60;1.00
463;DHT22;218;51.902;9.542;2023-06-14T16:38:29;29.50;1.00
463;DHT22;218;51.902;9.542;2023-06-14T16:40:57;29.50;1.00
463;DHT22;218;51.902;9.542;2023-06-14T16:43:24;29.40;1.00
463;DHT22;218;51.902;9.542;2023-06-14T16:45:53;29.40;1.00
463;DHT22;218;51.902;9.542;2023-06-14T16:48:20;29.30;1.00
463;DHT22;218;51.902;9.542;2023-06-14T16:50:47;29.30;1.00
463;DHT22;218;51.902;9.542;2023-06-14T16:53:13;29.20;1.00
463;DHT22;218;51.902;9.542;2023-06-14T16:55:40;29.20;1.00
463;DHT22;218;51.902;9.542;2023-06-14T16:58:07;29.10;1.00
463;DHT22;218;51.902;9.542;2023-06-14T17:00:34;29.10;1.00
463;DHT22;218;51.902;9.542;2023-06-14T17:03:03;29.00;1.00
463;DHT22;218;51.902;9.542;2023-06-14T17:05:30;29.00;1.00
463;DHT22;218;51.902;9.542;2023-06-14T17:07:58;29.00;1.00
463;DHT22;218;51.902;9.542;2023-06-14T17:10:25;28.90;1.00
463;DHT22;218;51.902;9.542;2023-06-14T17:12:52;29.00;1.00
463;DHT22;218;51.902;9.542;2023-06-14T17:15:21;28.90;1.00
463;DHT22;218;51.902;9.542;2023-06-14T17:17:55;28.90;1.00
463;DHT22;218;51.902;9.542;2023-06-14T17:20:23;28.80;1.00
463;DHT22;218;51.902;9.542;2023-06-14T17:22:52;28.80;1.00
463;DHT22;218;51.902;9.542;2023-06-14T17:25:19;28.80;1.00
463;DHT22;218;51.902;9.542;2023-06-14T17:27:46;28.80;1.00
463;DHT22;218;51.902;9.542;2023-06-14T17:30:13;28.80;1.00
463;DHT22;218;51.902;9.542;2023-06-14T17:32:41;28.80;1.00
463;DHT22;218;51.902;9.542;2023-06-14T17:35:08;28.80;1.00
463;DHT22;218;51.902;9.542;2023-06-14T17:37:36;28.80;1.00
463;DHT22;218;51.902;9.542;2023-06-14T17:40:04;28.80;1.00
463;DHT22;218;51.902;9.542;2023-06-14T17:42:31;28.80;1.00
463;DHT22;218;51.902;9.542;2023-06-14T17:44:58;28.80;1.00
463;DHT22;218;51.902;9.542;2023-06-14T17:47:25;28.80;1.00
463;DHT22;218;51.902;9.542;2023-06-14T17:49:52;28.70;1.00
463;DHT22;218;51.902;9.542;2023-06-14T17:52:21;28.70;1.00
463;DHT22;218;51.902;9.542;2023-06-14T17:54:49;28.70;1.00
463;DHT22;218;51.902;9.542;2023-06-14T17:57:16;28.70;1.00
463;DHT22;218;51.902;9.542;2023-06-14T17:59:43;28.60;1.00
463;DHT22;218;51.902;9.542;2023-06-14T18:02:11;28.60;1.00
463;DHT22;218;51.902;9.542;2023-06-14T18:04:38;28.60;1.00
463;DHT22;218;51.902;9.542;2023-06-14T18:07:05;28.60;1.00
463;DHT22;218;51.902;9.542;2023-06-14T18:09:32;28.60;1.00
463;DHT22;218;51.902;9.542;2023-06-14T18:12:00;28.60;1.00
463;DHT22;218;51.902;9.542;2023-06-14T18:14:27;28.60;1.00
463;DHT22;218;51.902;9.542;2023-06-14T18:16:54;28.60;1.00
463;DHT22;218;51.902;9.542;2023-06-14T18:19:21;28.60;1.00
463;DHT22;218;51.902;9.542;2023-06-14T18:21:52;28.60;1.00
463;DHT22;218;51.902;9.542;2023-06-14T18:24:19;28.60;1.00
463;DHT22;218;51.902;9.542;2023-06-14T18:26:46;28.60;1.00
463;DHT22;218;51.902;9.542;2023-06-14T18:29:15;28.60;1.00
463;DHT22;218;51.902;9.542;2023-06-14T18:31:42;28.60;1.00
463;DHT22;218;51.902;9.542;2023-06-14T18:34:09;28.70;1.00
463;DHT22;218;51.902;9.542;2023-06-14T18:36:36;28.70;1.00
463;DHT22;218;51.902;9.542;2023-06-14T18:39:04;28.70;1.00
463;DHT22;218;51.902;9.542;2023-06-14T18:41:31;28.70;1.00
463;DHT22;218;51.902;9.542;2023-06-14T18:43:58;28.70;1.00
463;DHT22;218;51.902;9.542;2023-06-14T18:46:27;28.70;1.00
463;DHT22;218;51.902;9.542;2023-06-14T18:48:55;28.70;1.00
463;DHT22;218;51.902;9.542;2023-06-14T18:51:21;28.60;1.00
463;DHT22;218;51.902;9.542;2023-06-14T18:53:48;28.70;1.00
463;DHT22;218;51.902;9.542;2023-06-14T18:56:15;28.50;1.00
463;DHT22;218;51.902;9.542;2023-06-14T18:58:42;28.40;1.00
463;DHT22;218;51.902;9.542;2023-06-14T19:01:09;28.30;1.00
463;DHT22;218;51.902;9.542;2023-06-14T19:03:38;28.30;1.00
463;DHT22;218;51.902;9.542;2023-06-14T19:06:05;28.10;1.00
463;DHT22;218;51.902;9.542;2023-06-14T19:08:32;28.00;1.00
463;DHT22;218;51.902;9.542;2023-06-14T19:10:59;27.90;1.00
463;DHT22;218;51.902;9.542;2023-06-14T19:13:26;27.80;1.00
463;DHT22;218;51.902;9.542;2023-06-14T19:15:57;27.60;1.00
463;DHT22;218;51.902;9.542;2023-06-14T19:18:24;27.50;1.00
463;DHT22;218;51.902;9.542;2023-06-14T19:20:52;27.40;1.00
463;DHT22;218;51.902;9.542;2023-06-14T19:23:19;27.20;1.00
463;DHT22;218;51.902;9.542;2023-06-14T19:25:47;27.10;1.00
463;DHT22;218;51.902;9.542;2023-06-14T19:28:14;27.00;1.00
463;DHT22;218;51.902;9.542;2023-06-14T19:30:41;26.80;1.00
463;DHT22;218;51.902;9.542;2023-06-14T19:33:10;26.70;1.00
463;DHT22;218;51.902;9.542;2023-06-14T19:35:38;26.60;1.00
463;DHT22;218;51.902;9.542;2023-06-14T19:38:06;26.40;1.00
463;DHT22;218;51.902;9.542;2023-06-14T19:40:33;26.20;1.00
463;DHT22;218;51.902;9.542;2023-06-14T19:43:00;26.00;1.00
463;DHT22;218;51.902;9.542;2023-06-14T19:45:27;25.80;1.00
463;DHT22;218;51.902;9.542;2023-06-14T19:47:53;25.70;1.00
463;DHT22;218;51.902;9.542;2023-06-14T19:50:20;25.50;1.00
463;DHT22;218;51.902;9.542;2023-06-14T19:52:48;25.30;1.00
463;DHT22;218;51.902;9.542;2023-06-14T19:55:17;25.20;1.00
463;DHT22;218;51.902;9.542;2023-06-14T19:57:44;25.00;1.00
463;DHT22;218;51.902;9.542;2023-06-14T20:00:11;24.90;1.00
463;DHT22;218;51.902;9.542;2023-06-14T20:02:39;24.70;1.00
463;DHT22;218;51.902;9.542;2023-06-14T20:05:06;24.50;1.00
463;DHT22;218;51.902;9.542;2023-06-14T20:07:33;24.50;1.00
463;DHT22;218;51.902;9.542;2023-06-14T20:10:02;24.50;1.00
463;DHT22;218;51.902;9.542;2023-06-14T20:12:30;24.40;1.00
463;DHT22;218;51.902;9.542;2023-06-14T20:14:57;24.40;1.00
463;DHT22;218;51.902;9.542;2023-06-14T20:17:24;24.30;1.00
463;DHT22;218;51.902;9.542;2023-06-14T20:19:51;24.20;1.00
463;DHT22;218;51.902;9.542;2023-06-14T20:22:18;24.20;1.00
463;DHT22;218;51.902;9.542;2023-06-14T20:24:45;24.10;1.00
463;DHT22;218;51.902;9.542;2023-06-14T20:27:12;24.10;1.00
463;DHT22;218;51.902;9.542;2023-06-14T20:29:40;24.00;1.00
463;DHT22;218;51.902;9.542;2023-06-14T20:32:08;23.90;1.00
463;DHT22;218;51.902;9.542;2023-06-14T20:34:35;23.90;1.00
463;DHT22;218;51.902;9.542;2023-06-14T20:37:02;23.80;1.00
463;DHT22;218;51.902;9.542;2023-06-14T20:39:28;23.70;1.00
463;DHT22;218;51.902;9.542;2023-06-14T20:41:55;23.70;1.00
463;DHT22;218;51.902;9.542;2023-06-14T20:44:23;23.50;1.00
463;DHT22;218;51.902;9.542;2023-06-14T20:46:56;23.30;1.00
463;DHT22;218;51.902;9.542;2023-06-14T20:49:24;22.80;1.00
463;DHT22;218;51.902;9.542;2023-06-14T20:51:52;22.50;1.00
463;DHT22;218;51.902;9.542;2023-06-14T20:54:19;22.20;1.00
463;DHT22;218;51.902;9.542;2023-06-14T20:56:46;22.00;1.00
463;DHT22;218;51.902;9.542;2023-06-14T20:59:13;21.80;1.00
463;DHT22;218;51.902;9.542;2023-06-14T21:01:40;21.60;1.00
463;DHT22;218;51.902;9.542;2023-06-14T21:06:36;21.20;1.00
463;DHT22;218;51.902;9.542;2023-06-14T21:18:53;20.20;1.00
463;DHT22;218;51.902;9.542;2023-06-14T21:23:48;19.50;1.00
463;DHT22;218;51.902;9.542;2023-06-14T21:43:28;18.30;1.00
463;DHT22;218;51.902;9.542;2023-06-14T22:00:39;18.20;1.00
463;DHT22;218;51.902;9.542;2023-06-14T22:20:22;17.30;1.00
463;DHT22;218;51.902;9.542;2023-06-14T22:25:16;17.20;1.00
463;DHT22;218;51.902;9.542;2023-06-14T22:40:06;16.40;1.00
463;DHT22;218;51.902;9.542;2023-06-14T22:50:03;16.20;1.00
463;DHT22;218;51.902;9.542;2023-06-14T22:57:27;16.10;1.00
463;DHT22;218;51.902;9.542;2023-06-14T23:49:22;14.90;1.00
463;DHT22;218;51.902;9.542;2023-06-14T23:51:49;15.50;1.00
